sensor_id;sensor_type;location;lat;lon;timestamp;pressure;altitude;pressure_sealevel;temperature;humidity
28428;BME280;15662;49.128;8.520;2023-08-08T00:01:17;100551.72;;;21.12;44.77
28428;BME280;15662;49.128;8.520;2023-08-08T00:03:45;100551.72;;;21.12;44.54
28428;BME280;15662;49.128;8.520;2023-08-08T00:06:13;100549.88;;;21.13;44.87
28428;BME280;15662;49.128;8.520;2023-08-08T00:08:41;100543.19;;;21.06;44.78
28428;BME280;15662;49.128;8.520;2023-08-08T00:11:09;100545.56;;;21.10;44.76
28428;BME280;15662;49.128;8.520;2023-08-08T00:13:37;100547.41;;;21.10;45.00
28428;BME280;15662;49.128;8.520;2023-08-08T00:16:05;100543.84;;;21.09;45.03
28428;BME280;15662;49.128;8.520;2023-08-08T00:18:33;100522.72;;;21.03;44.86
28428;BME280;15662;49.128;8.520;2023-08-08T00:21:00;100548.38;;;21.09;44.91
28428;BME280;15662;49.128;8.520;2023-08-08T00:23:28;100534.13;;;21.07;45.13
28428;BME280;15662;49.128;8.520;2023-08-08T00:25:56;100537.69;;;21.07;45.18
28428;BME280;15662;49.128;8.520;2023-08-08T00:28:24;100528.84;;;21.05;45.37
28428;BME280;15662;49.128;8.520;2023-08-08T00:30:53;100538.53;;;21.08;45.14
28428;BME280;15662;49.128;8.520;2023-08-08T00:33:21;100536.94;;;21.05;45.41
28428;BME280;15662;49.128;8.520;2023-08-08T00:35:48;100540.19;;;21.10;45.27
28428;BME280;15662;49.128;8.520;2023-08-08T00:38:16;100544.03;;;21.06;45.22
28428;BME280;15662;49.128;8.520;2023-08-08T00:40:46;100544.41;;;21.15;45.18
28428;BME280;15662;49.128;8.520;2023-08-08T00:43:14;100539.88;;;21.15;45.37
28428;BME280;15662;49.128;8.520;2023-08-08T00:45:42;100536.63;;;21.10;45.35
28428;BME280;15662;49.128;8.520;2023-08-08T00:48:12;100540.28;;;21.09;45.50
28428;BME280;15662;49.128;8.520;2023-08-08T00:50:43;100538.72;;;21.19;45.32
28428;BME280;15662;49.128;8.520;2023-08-08T00:53:12;100540.72;;;21.16;45.43
28428;BME280;15662;49.128;8.520;2023-08-08T00:55:40;100529.22;;;21.13;45.44
28428;BME280;15662;49.128;8.520;2023-08-08T00:58:08;100525.41;;;21.16;45.45
28428;BME280;15662;49.128;8.520;2023-08-08T01:00:37;100522.53;;;21.19;45.54
28428;BME280;15662;49.128;8.520;2023-08-08T01:03:05;100533.19;;;21.21;45.33
28428;BME280;15662;49.128;8.520;2023-08-08T01:05:43;100524.91;;;21.24;45.51
28428;BME280;15662;49.128;8.520;2023-08-08T01:08:19;100524.13;;;21.22;45.56
28428;BME280;15662;49.128;8.520;2023-08-08T01:10:50;100520.47;;;21.23;45.47
28428;BME280;15662;49.128;8.520;2023-08-08T01:13:23;100517.34;;;21.16;45.51
28428;BME280;15662;49.128;8.520;2023-08-08T01:15:54;100524.44;;;21.17;45.51
28428;BME280;15662;49.128;8.520;2023-08-08T01:18:24;100521.97;;;21.14;45.47
28428;BME280;15662;49.128;8.520;2023-08-08T01:20:53;100525.53;;;21.15;45.46
28428;BME280;15662;49.128;8.520;2023-08-08T01:23:52;100526.50;;;21.13;45.44
28428;BME280;15662;49.128;8.520;2023-08-08T01:26:21;100515.78;;;20.99;45.65
28428;BME280;15662;49.128;8.520;2023-08-08T01:28:53;100519.34;;;21.00;45.65
28428;BME280;15662;49.128;8.520;2023-08-08T01:31:23;100514.66;;;20.89;45.62
28428;BME280;15662;49.128;8.520;2023-08-08T01:33:51;100526.00;;;20.94;45.68
28428;BME280;15662;49.128;8.520;2023-08-08T01:36:35;100521.00;;;20.88;45.73
28428;BME280;15662;49.128;8.520;2023-08-08T01:39:13;100524.00;;;20.83;45.75
28428;BME280;15662;49.128;8.520;2023-08-08T01:41:42;100513.84;;;20.74;45.86
28428;BME280;15662;49.128;8.520;2023-08-08T01:44:12;100516.44;;;20.76;46.16
28428;BME280;15662;49.128;8.520;2023-08-08T01:46:40;100519.25;;;20.74;46.15
28428;BME280;15662;49.128;8.520;2023-08-08T01:49:08;100516.63;;;20.73;46.09
28428;BME280;15662;49.128;8.520;2023-08-08T01:51:36;100525.69;;;20.72;46.04
28428;BME280;15662;49.128;8.520;2023-08-08T01:54:04;100523.84;;;20.72;46.46
28428;BME280;15662;49.128;8.520;2023-08-08T01:56:31;100519.63;;;20.68;46.19
28428;BME280;15662;49.128;8.520;2023-08-08T01:59:01;100521.16;;;20.72;46.53
28428;BME280;15662;49.128;8.520;2023-08-08T02:01:29;100517.03;;;20.67;46.52
28428;BME280;15662;49.128;8.520;2023-08-08T02:03:57;100519.84;;;20.65;46.53
28428;BME280;15662;49.128;8.520;2023-08-08T02:06:24;100522.59;;;20.64;46.25
28428;BME280;15662;49.128;8.520;2023-08-08T02:08:52;100503.31;;;20.57;46.53
28428;BME280;15662;49.128;8.520;2023-08-08T02:11:20;100516.28;;;20.65;46.70
28428;BME280;15662;49.128;8.520;2023-08-08T02:13:49;100516.59;;;20.60;46.65
28428;BME280;15662;49.128;8.520;2023-08-08T02:16:17;100523.59;;;20.63;46.75
28428;BME280;15662;49.128;8.520;2023-08-08T02:18:45;100519.16;;;20.61;46.37
28428;BME280;15662;49.128;8.520;2023-08-08T02:21:13;100511.19;;;20.60;46.59
28428;BME280;15662;49.128;8.520;2023-08-08T02:23:41;100500.72;;;20.55;46.52
28428;BME280;15662;49.128;8.520;2023-08-08T02:26:09;100499.88;;;20.55;46.67
28428;BME280;15662;49.128;8.520;2023-08-08T02:28:37;100502.84;;;20.50;46.78
28428;BME280;15662;49.128;8.520;2023-08-08T02:31:05;100502.19;;;20.47;46.78
28428;BME280;15662;49.128;8.520;2023-08-08T02:33:32;100511.00;;;20.49;46.54
28428;BME280;15662;49.128;8.520;2023-08-08T02:36:00;100506.66;;;20.46;46.88
28428;BME280;15662;49.128;8.520;2023-08-08T02:38:28;100512.25;;;20.43;47.04
28428;BME280;15662;49.128;8.520;2023-08-08T02:40:56;100507.16;;;20.39;46.76
28428;BME280;15662;49.128;8.520;2023-08-08T02:43:24;100520.25;;;20.45;46.87
28428;BME280;15662;49.128;8.520;2023-08-08T02:45:52;100517.44;;;20.46;47.13
28428;BME280;15662;49.128;8.520;2023-08-08T02:48:20;100516.50;;;20.47;47.19
28428;BME280;15662;49.128;8.520;2023-08-08T02:50:48;100520.06;;;20.48;47.29
28428;BME280;15662;49.128;8.520;2023-08-08T02:53:16;100510.06;;;20.50;47.05
28428;BME280;15662;49.128;8.520;2023-08-08T02:55:48;100511.78;;;20.51;47.15
28428;BME280;15662;49.128;8.520;2023-08-08T02:58:16;100506.41;;;20.51;47.34
28428;BME280;15662;49.128;8.520;2023-08-08T03:00:44;100517.84;;;20.54;47.35
28428;BME280;15662;49.128;8.520;2023-08-08T03:03:15;100496.69;;;20.48;47.37
28428;BME280;15662;49.128;8.520;2023-08-08T03:05:45;100507.09;;;20.54;47.45
28428;BME280;15662;49.128;8.520;2023-08-08T03:08:16;100511.03;;;20.34;47.33
28428;BME280;15662;49.128;8.520;2023-08-08T03:10:43;100508.69;;;20.43;47.36
28428;BME280;15662;49.128;8.520;2023-08-08T03:13:12;100502.56;;;20.41;47.44
28428;BME280;15662;49.128;8.520;2023-08-08T03:15:41;100512.16;;;20.45;47.28
28428;BME280;15662;49.128;8.520;2023-08-08T03:18:10;100502.44;;;20.42;47.23
28428;BME280;15662;49.128;8.520;2023-08-08T03:20:38;100507.06;;;20.40;47.32
28428;BME280;15662;49.128;8.520;2023-08-08T03:23:07;100508.78;;;20.41;47.57
28428;BME280;15662;49.128;8.520;2023-08-08T03:25:37;100503.03;;;20.33;47.69
28428;BME280;15662;49.128;8.520;2023-08-08T03:28:05;100503.69;;;20.36;47.58
28428;BME280;15662;49.128;8.520;2023-08-08T03:30:33;100510.91;;;20.36;47.50
28428;BME280;15662;49.128;8.520;2023-08-08T03:33:00;100513.50;;;20.38;47.68
28428;BME280;15662;49.128;8.520;2023-08-08T03:35:29;100521.56;;;20.38;47.48
28428;BME280;15662;49.128;8.520;2023-08-08T03:37:57;100512.75;;;20.35;47.84
28428;BME280;15662;49.128;8.520;2023-08-08T03:40:25;100506.59;;;20.33;47.71
28428;BME280;15662;49.128;8.520;2023-08-08T03:42:53;100511.88;;;20.35;47.63
28428;BME280;15662;49.128;8.520;2023-08-08T03:45:20;100517.34;;;20.33;47.92
28428;BME280;15662;49.128;8.520;2023-08-08T03:47:48;100507.72;;;20.29;47.80
28428;BME280;15662;49.128;8.520;2023-08-08T03:50:16;100503.44;;;20.27;47.78
28428;BME280;15662;49.128;8.520;2023-08-08T03:52:44;100499.00;;;20.26;48.03
28428;BME280;15662;49.128;8.520;2023-08-08T03:55:12;100506.59;;;20.33;47.90
28428;BME280;15662;49.128;8.520;2023-08-08T03:57:41;100496.97;;;20.29;47.88
28428;BME280;15662;49.128;8.520;2023-08-08T04:00:10;100508.41;;;20.33;48.06
28428;BME280;15662;49.128;8.520;2023-08-08T04:02:41;100515.53;;;20.34;48.08
28428;BME280;15662;49.128;8.520;2023-08-08T04:05:09;100521.97;;;20.31;47.81
28428;BME280;15662;49.128;8.520;2023-08-08T04:07:37;100515.63;;;20.32;47.79
28428;BME280;15662;49.128;8.520;2023-08-08T04:10:06;100510.25;;;20.32;47.86
28428;BME280;15662;49.128;8.520;2023-08-08T04:12:34;100499.78;;;20.28;48.02
28428;BME280;15662;49.128;8.520;2023-08-08T04:15:02;100510.34;;;20.31;47.74
28428;BME280;15662;49.128;8.520;2023-08-08T04:17:30;100521.00;;;20.32;47.69
28428;BME280;15662;49.128;8.520;2023-08-08T04:19:57;100531.03;;;20.30;48.03
28428;BME280;15662;49.128;8.520;2023-08-08T04:22:25;100526.69;;;20.28;47.87
28428;BME280;15662;49.128;8.520;2023-08-08T04:24:53;100517.06;;;20.24;48.25
28428;BME280;15662;49.128;8.520;2023-08-08T04:27:21;100530.53;;;20.24;48.00
28428;BME280;15662;49.128;8.520;2023-08-08T04:29:49;100538.41;;;20.27;48.38
28428;BME280;15662;49.128;8.520;2023-08-08T04:32:17;100523.53;;;20.21;48.35
28428;BME280;15662;49.128;8.520;2023-08-08T04:34:44;100536.59;;;20.27;48.38
28428;BME280;15662;49.128;8.520;2023-08-08T04:37:12;100542.72;;;20.29;48.46
28428;BME280;15662;49.128;8.520;2023-08-08T04:39:40;100532.06;;;20.28;48.69
28428;BME280;15662;49.128;8.520;2023-08-08T04:42:08;100534.47;;;20.32;48.83
28428;BME280;15662;49.128;8.520;2023-08-08T04:44:36;100537.72;;;20.38;48.70
28428;BME280;15662;49.128;8.520;2023-08-08T04:47:04;100539.16;;;20.43;48.91
28428;BME280;15662;49.128;8.520;2023-08-08T04:49:32;100547.94;;;20.47;49.10
28428;BME280;15662;49.128;8.520;2023-08-08T04:52:00;100541.59;;;20.48;48.96
28428;BME280;15662;49.128;8.520;2023-08-08T04:54:29;100539.47;;;20.53;48.79
28428;BME280;15662;49.128;8.520;2023-08-08T04:56:57;100546.69;;;20.52;49.04
28428;BME280;15662;49.128;8.520;2023-08-08T04:59:25;100546.41;;;20.57;48.84
28428;BME280;15662;49.128;8.520;2023-08-08T05:01:53;100547.47;;;20.54;48.91
28428;BME280;15662;49.128;8.520;2023-08-08T05:04:21;100555.03;;;20.62;49.24
28428;BME280;15662;49.128;8.520;2023-08-08T05:06:50;100545.13;;;20.63;49.13
28428;BME280;15662;49.128;8.520;2023-08-08T05:09:18;100549.25;;;20.68;48.95
28428;BME280;15662;49.128;8.520;2023-08-08T05:11:48;100542.13;;;20.67;49.30
28428;BME280;15662;49.128;8.520;2023-08-08T05:14:16;100547.91;;;20.75;49.23
28428;BME280;15662;49.128;8.520;2023-08-08T05:16:45;100551.47;;;20.76;48.95
28428;BME280;15662;49.128;8.520;2023-08-08T05:19:14;100542.94;;;20.69;49.14
28428;BME280;15662;49.128;8.520;2023-08-08T05:21:41;100543.56;;;20.73;49.20
28428;BME280;15662;49.128;8.520;2023-08-08T05:24:10;100548.09;;;20.72;49.15
28428;BME280;15662;49.128;8.520;2023-08-08T05:26:38;100543.69;;;20.71;49.22
28428;BME280;15662;49.128;8.520;2023-08-08T05:29:06;100537.53;;;20.69;49.32
28428;BME280;15662;49.128;8.520;2023-08-08T05:31:34;100527.06;;;20.65;49.06
28428;BME280;15662;49.128;8.520;2023-08-08T05:34:01;100537.53;;;20.69;49.38
28428;BME280;15662;49.128;8.520;2023-08-08T05:36:29;100535.03;;;20.66;49.41
28428;BME280;15662;49.128;8.520;2023-08-08T05:38:57;100534.28;;;20.64;49.30
28428;BME280;15662;49.128;8.520;2023-08-08T05:41:25;100523.69;;;20.61;49.26
28428;BME280;15662;49.128;8.520;2023-08-08T05:43:53;100538.13;;;20.60;49.29
28428;BME280;15662;49.128;8.520;2023-08-08T05:46:22;100527.44;;;20.58;49.36
28428;BME280;15662;49.128;8.520;2023-08-08T05:48:50;100523.13;;;20.56;49.55
28428;BME280;15662;49.128;8.520;2023-08-08T05:51:17;100533.91;;;20.56;49.26
28428;BME280;15662;49.128;8.520;2023-08-08T05:53:45;100528.69;;;20.53;49.32
28428;BME280;15662;49.128;8.520;2023-08-08T05:56:13;100525.03;;;20.54;49.50
28428;BME280;15662;49.128;8.520;2023-08-08T05:58:42;100535.06;;;20.52;49.78
28428;BME280;15662;49.128;8.520;2023-08-08T06:01:09;100541.41;;;20.51;49.56
28428;BME280;15662;49.128;8.520;2023-08-08T06:03:39;100543.25;;;20.50;49.66
28428;BME280;15662;49.128;8.520;2023-08-08T06:06:07;100548.69;;;20.49;49.86
28428;BME280;15662;49.128;8.520;2023-08-08T06:08:35;100554.97;;;20.49;49.75
28428;BME280;15662;49.128;8.520;2023-08-08T06:11:03;100552.84;;;20.54;49.63
28428;BME280;15662;49.128;8.520;2023-08-08T06:13:32;100542.16;;;20.53;49.77
28428;BME280;15662;49.128;8.520;2023-08-08T06:16:00;100548.97;;;20.58;49.99
28428;BME280;15662;49.128;8.520;2023-08-08T06:18:29;100543.28;;;20.63;50.02
28428;BME280;15662;49.128;8.520;2023-08-08T06:20:56;100540.41;;;20.66;49.92
28428;BME280;15662;49.128;8.520;2023-08-08T06:23:24;100538.41;;;20.70;49.94
28428;BME280;15662;49.128;8.520;2023-08-08T06:25:52;100543.19;;;20.79;49.91
28428;BME280;15662;49.128;8.520;2023-08-08T06:28:20;100542.78;;;20.85;50.01
28428;BME280;15662;49.128;8.520;2023-08-08T06:30:48;100538.91;;;20.89;50.13
28428;BME280;15662;49.128;8.520;2023-08-08T06:33:15;100538.22;;;21.00;50.28
28428;BME280;15662;49.128;8.520;2023-08-08T06:35:44;100538.47;;;21.09;50.32
28428;BME280;15662;49.128;8.520;2023-08-08T06:38:12;100536.00;;;21.19;50.18
28428;BME280;15662;49.128;8.520;2023-08-08T06:40:40;100538.09;;;21.28;50.37
28428;BME280;15662;49.128;8.520;2023-08-08T06:43:08;100542.13;;;21.35;50.25
28428;BME280;15662;49.128;8.520;2023-08-08T06:45:36;100554.00;;;21.46;50.09
28428;BME280;15662;49.128;8.520;2023-08-08T06:48:05;100552.41;;;21.56;50.01
28428;BME280;15662;49.128;8.520;2023-08-08T06:50:35;100544.97;;;21.59;50.08
28428;BME280;15662;49.128;8.520;2023-08-08T06:53:04;100535.38;;;21.68;49.94
28428;BME280;15662;49.128;8.520;2023-08-08T06:55:32;100532.06;;;21.77;49.89
28428;BME280;15662;49.128;8.520;2023-08-08T06:58:00;100527.28;;;21.81;49.72
28428;BME280;15662;49.128;8.520;2023-08-08T07:00:28;100527.31;;;21.94;49.49
28428;BME280;15662;49.128;8.520;2023-08-08T07:02:57;100524.91;;;22.02;49.30
28428;BME280;15662;49.128;8.520;2023-08-08T07:05:28;100526.97;;;22.11;49.21
28428;BME280;15662;49.128;8.520;2023-08-08T07:07:57;100520.06;;;22.20;49.13
28428;BME280;15662;49.128;8.520;2023-08-08T07:10:27;100521.78;;;22.33;48.83
28428;BME280;15662;49.128;8.520;2023-08-08T07:12:55;100518.09;;;22.34;48.93
28428;BME280;15662;49.128;8.520;2023-08-08T07:15:23;100527.25;;;22.45;48.54
28428;BME280;15662;49.128;8.520;2023-08-08T07:17:51;100522.91;;;22.55;48.26
28428;BME280;15662;49.128;8.520;2023-08-08T07:20:19;100518.81;;;22.62;48.11
28428;BME280;15662;49.128;8.520;2023-08-08T07:22:47;100527.19;;;22.70;47.92
28428;BME280;15662;49.128;8.520;2023-08-08T07:25:15;100522.22;;;22.77;47.84
28428;BME280;15662;49.128;8.520;2023-08-08T07:27:43;100522.59;;;22.83;47.82
28428;BME280;15662;49.128;8.520;2023-08-08T07:30:12;100517.63;;;22.90;47.41
28428;BME280;15662;49.128;8.520;2023-08-08T07:32:40;100522.69;;;22.95;47.16
28428;BME280;15662;49.128;8.520;2023-08-08T07:35:08;100524.84;;;23.02;46.71
28428;BME280;15662;49.128;8.520;2023-08-08T07:37:36;100512.03;;;23.04;46.87
28428;BME280;15662;49.128;8.520;2023-08-08T07:40:17;100520.09;;;23.17;46.41
28428;BME280;15662;49.128;8.520;2023-08-08T07:42:47;100522.03;;;23.15;46.41
28428;BME280;15662;49.128;8.520;2023-08-08T07:45:15;100523.66;;;23.17;46.31
28428;BME280;15662;49.128;8.520;2023-08-08T07:47:43;100516.81;;;23.25;46.02
28428;BME280;15662;49.128;8.520;2023-08-08T07:50:13;100520.78;;;23.32;46.09
28428;BME280;15662;49.128;8.520;2023-08-08T07:52:41;100519.31;;;23.39;45.79
28428;BME280;15662;49.128;8.520;2023-08-08T07:55:09;100510.63;;;23.47;45.37
28428;BME280;15662;49.128;8.520;2023-08-08T07:57:37;100512.84;;;23.53;45.22
28428;BME280;15662;49.128;8.520;2023-08-08T08:00:05;100512.13;;;23.62;44.62
28428;BME280;15662;49.128;8.520;2023-08-08T08:02:42;100518.34;;;23.75;44.67
28428;BME280;15662;49.128;8.520;2023-08-08T08:05:11;100504.56;;;23.78;44.28
28428;BME280;15662;49.128;8.520;2023-08-08T08:07:40;100506.03;;;23.82;44.03
28428;BME280;15662;49.128;8.520;2023-08-08T08:10:11;100524.50;;;23.88;44.18
28428;BME280;15662;49.128;8.520;2023-08-08T08:12:41;100508.25;;;23.88;43.89
28428;BME280;15662;49.128;8.520;2023-08-08T08:15:10;100502.00;;;23.88;43.61
28428;BME280;15662;49.128;8.520;2023-08-08T08:17:38;100515.91;;;23.94;43.87
28428;BME280;15662;49.128;8.520;2023-08-08T08:20:07;100501.75;;;24.02;43.60
28428;BME280;15662;49.128;8.520;2023-08-08T08:22:38;100501.63;;;24.04;43.78
28428;BME280;15662;49.128;8.520;2023-08-08T08:25:07;100502.88;;;24.11;43.21
28428;BME280;15662;49.128;8.520;2023-08-08T08:27:37;100500.78;;;24.14;43.27
28428;BME280;15662;49.128;8.520;2023-08-08T08:30:06;100505.56;;;24.22;43.44
28428;BME280;15662;49.128;8.520;2023-08-08T08:32:40;100495.72;;;24.21;42.76
28428;BME280;15662;49.128;8.520;2023-08-08T08:35:09;100504.22;;;24.28;42.74
28428;BME280;15662;49.128;8.520;2023-08-08T08:37:37;100501.41;;;24.29;42.72
28428;BME280;15662;49.128;8.520;2023-08-08T08:40:06;100505.06;;;24.28;42.42
28428;BME280;15662;49.128;8.520;2023-08-08T08:42:35;100499.56;;;24.30;42.59
28428;BME280;15662;49.128;8.520;2023-08-08T08:45:04;100501.03;;;24.34;42.58
28428;BME280;15662;49.128;8.520;2023-08-08T08:47:33;100485.28;;;24.39;42.70
28428;BME280;15662;49.128;8.520;2023-08-08T08:50:04;100490.44;;;24.19;42.88
28428;BME280;15662;49.128;8.520;2023-08-08T08:52:33;100492.16;;;24.32;43.23
28428;BME280;15662;49.128;8.520;2023-08-08T08:55:01;100494.75;;;24.44;42.88
28428;BME280;15662;49.128;8.520;2023-08-08T08:57:29;100488.13;;;24.49;42.65
28428;BME280;15662;49.128;8.520;2023-08-08T08:59:57;100488.22;;;24.58;42.72
28428;BME280;15662;49.128;8.520;2023-08-08T09:02:24;100483.38;;;24.62;42.20
28428;BME280;15662;49.128;8.520;2023-08-08T09:04:53;100479.44;;;24.66;42.31
28428;BME280;15662;49.128;8.520;2023-08-08T09:07:23;100484.34;;;24.72;42.34
28428;BME280;15662;49.128;8.520;2023-08-08T09:09:54;100467.34;;;24.70;42.09
28428;BME280;15662;49.128;8.520;2023-08-08T09:12:22;100472.41;;;24.75;41.85
28428;BME280;15662;49.128;8.520;2023-08-08T09:14:57;100470.88;;;24.82;41.90
28428;BME280;15662;49.128;8.520;2023-08-08T09:17:27;100471.75;;;24.82;41.56
28428;BME280;15662;49.128;8.520;2023-08-08T09:20:14;100463.22;;;24.87;41.55
28428;BME280;15662;49.128;8.520;2023-08-08T09:22:43;100467.41;;;24.91;41.56
28428;BME280;15662;49.128;8.520;2023-08-08T09:25:11;100460.59;;;24.96;41.30
28428;BME280;15662;49.128;8.520;2023-08-08T09:27:41;100459.81;;;25.06;41.60
28428;BME280;15662;49.128;8.520;2023-08-08T09:30:13;100466.75;;;25.10;41.54
28428;BME280;15662;49.128;8.520;2023-08-08T09:32:43;100461.19;;;25.11;41.37
28428;BME280;15662;49.128;8.520;2023-08-08T09:35:13;100465.50;;;25.14;41.00
28428;BME280;15662;49.128;8.520;2023-08-08T09:37:41;100463.38;;;25.17;41.14
28428;BME280;15662;49.128;8.520;2023-08-08T09:40:10;100447.97;;;25.18;41.26
28428;BME280;15662;49.128;8.520;2023-08-08T09:42:40;100455.72;;;25.23;40.54
28428;BME280;15662;49.128;8.520;2023-08-08T09:45:09;100448.28;;;25.25;40.70
28428;BME280;15662;49.128;8.520;2023-08-08T09:47:38;100459.47;;;25.31;40.20
28428;BME280;15662;49.128;8.520;2023-08-08T09:50:07;100458.06;;;25.37;40.27
28428;BME280;15662;49.128;8.520;2023-08-08T09:52:36;100448.13;;;25.37;39.95
28428;BME280;15662;49.128;8.520;2023-08-08T09:55:07;100454.47;;;25.47;39.83
28428;BME280;15662;49.128;8.520;2023-08-08T09:57:35;100456.22;;;25.58;39.95
28428;BME280;15662;49.128;8.520;2023-08-08T10:00:07;100444.47;;;25.48;40.73
28428;BME280;15662;49.128;8.520;2023-08-08T10:02:39;100450.25;;;25.64;40.55
28428;BME280;15662;49.128;8.520;2023-08-08T10:05:10;100444.03;;;25.73;39.79
28428;BME280;15662;49.128;8.520;2023-08-08T10:07:41;100440.09;;;25.78;39.29
28428;BME280;15662;49.128;8.520;2023-08-08T10:10:10;100452.41;;;25.82;38.96
28428;BME280;15662;49.128;8.520;2023-08-08T10:12:42;100443.09;;;25.84;38.92
28428;BME280;15662;49.128;8.520;2023-08-08T10:15:10;100441.00;;;25.88;38.95
28428;BME280;15662;49.128;8.520;2023-08-08T10:17:39;100443.16;;;25.94;39.20
28428;BME280;15662;49.128;8.520;2023-08-08T10:20:10;100441.75;;;25.99;38.84
28428;BME280;15662;49.128;8.520;2023-08-08T10:22:49;100418.84;;;25.92;38.74
28428;BME280;15662;49.128;8.520;2023-08-08T10:25:37;100439.34;;;26.06;38.80
28428;BME280;15662;49.128;8.520;2023-08-08T10:28:10;100434.22;;;26.13;38.27
28428;BME280;15662;49.128;8.520;2023-08-08T10:33:24;100438.06;;;26.10;37.98
28428;BME280;15662;49.128;8.520;2023-08-08T10:36:01;100430.50;;;26.14;38.08
28428;BME280;15662;49.128;8.520;2023-08-08T10:41:14;100431.69;;;26.21;37.99
28428;BME280;15662;49.128;8.520;2023-08-08T10:43:57;100430.97;;;26.29;37.34
28428;BME280;15662;49.128;8.520;2023-08-08T10:46:30;100431.56;;;26.32;37.55
28428;BME280;15662;49.128;8.520;2023-08-08T10:49:01;100426.56;;;26.37;37.73
28428;BME280;15662;49.128;8.520;2023-08-08T10:51:41;100416.88;;;26.44;37.06
28428;BME280;15662;49.128;8.520;2023-08-08T10:54:24;100412.88;;;26.48;36.68
28428;BME280;15662;49.128;8.520;2023-08-08T10:56:58;100411.03;;;26.49;36.57
28428;BME280;15662;49.128;8.520;2023-08-08T10:59:37;100423.63;;;26.60;36.49
28428;BME280;15662;49.128;8.520;2023-08-08T11:02:05;100415.63;;;26.58;35.93
28428;BME280;15662;49.128;8.520;2023-08-08T11:04:35;100410.03;;;26.60;36.01
28428;BME280;15662;49.128;8.520;2023-08-08T11:07:03;100415.91;;;26.65;35.66
28428;BME280;15662;49.128;8.520;2023-08-08T11:09:32;100400.03;;;26.70;35.88
28428;BME280;15662;49.128;8.520;2023-08-08T11:12:00;100414.50;;;26.80;35.90
28428;BME280;15662;49.128;8.520;2023-08-08T11:14:29;100411.19;;;26.86;35.60
28428;BME280;15662;49.128;8.520;2023-08-08T11:16:56;100413.34;;;26.92;35.29
28428;BME280;15662;49.128;8.520;2023-08-08T11:19:24;100406.19;;;27.01;35.43
28428;BME280;15662;49.128;8.520;2023-08-08T11:21:52;100414.78;;;27.06;35.24
28428;BME280;15662;49.128;8.520;2023-08-08T11:24:20;100411.66;;;27.11;35.00
28428;BME280;15662;49.128;8.520;2023-08-08T11:26:57;100415.81;;;27.15;34.79
28428;BME280;15662;49.128;8.520;2023-08-08T11:29:26;100407.06;;;27.21;34.64
28428;BME280;15662;49.128;8.520;2023-08-08T11:32:00;100410.47;;;27.33;34.73
28428;BME280;15662;49.128;8.520;2023-08-08T11:34:34;100408.03;;;27.39;34.37
28428;BME280;15662;49.128;8.520;2023-08-08T11:37:02;100408.72;;;27.41;33.76
28428;BME280;15662;49.128;8.520;2023-08-08T11:39:30;100411.88;;;27.46;33.82
28428;BME280;15662;49.128;8.520;2023-08-08T11:41:58;100403.41;;;27.49;33.50
28428;BME280;15662;49.128;8.520;2023-08-08T11:44:28;100396.97;;;27.50;33.48
28428;BME280;15662;49.128;8.520;2023-08-08T11:47:00;100391.91;;;27.56;34.00
28428;BME280;15662;49.128;8.520;2023-08-08T11:49:28;100388.19;;;27.57;33.83
28428;BME280;15662;49.128;8.520;2023-08-08T11:51:56;100391.31;;;27.62;33.92
28428;BME280;15662;49.128;8.520;2023-08-08T11:54:27;100395.75;;;27.72;33.93
28428;BME280;15662;49.128;8.520;2023-08-08T11:56:55;100391.03;;;27.74;33.55
28428;BME280;15662;49.128;8.520;2023-08-08T11:59:24;100380.69;;;27.78;33.69
28428;BME280;15662;49.128;8.520;2023-08-08T12:01:52;100374.38;;;27.77;33.57
28428;BME280;15662;49.128;8.520;2023-08-08T12:04:20;100386.41;;;27.85;33.24
28428;BME280;15662;49.128;8.520;2023-08-08T12:06:48;100379.09;;;27.85;33.34
28428;BME280;15662;49.128;8.520;2023-08-08T12:09:17;100381.50;;;27.88;33.31
28428;BME280;15662;49.128;8.520;2023-08-08T12:11:46;100383.34;;;27.88;33.32
28428;BME280;15662;49.128;8.520;2023-08-08T12:14:14;100392.88;;;27.84;32.97
28428;BME280;15662;49.128;8.520;2023-08-08T12:16:44;100378.09;;;27.76;32.98
28428;BME280;15662;49.128;8.520;2023-08-08T12:19:12;100366.81;;;27.71;32.74
28428;BME280;15662;49.128;8.520;2023-08-08T12:21:42;100366.13;;;27.60;32.66
28428;BME280;15662;49.128;8.520;2023-08-08T12:24:09;100377.47;;;27.55;32.52
28428;BME280;15662;49.128;8.520;2023-08-08T12:26:37;100365.59;;;27.46;32.77
28428;BME280;15662;49.128;8.520;2023-08-08T12:29:05;100363.16;;;27.43;32.89
28428;BME280;15662;49.128;8.520;2023-08-08T12:31:33;100375.34;;;27.49;32.63
28428;BME280;15662;49.128;8.520;2023-08-08T12:34:02;100380.06;;;27.47;32.73
28428;BME280;15662;49.128;8.520;2023-08-08T12:36:30;100364.88;;;27.44;32.22
28428;BME280;15662;49.128;8.520;2023-08-08T12:38:58;100372.91;;;27.46;31.81
28428;BME280;15662;49.128;8.520;2023-08-08T12:41:26;100363.56;;;27.48;32.12
28428;BME280;15662;49.128;8.520;2023-08-08T12:43:57;100360.16;;;27.46;32.27
28428;BME280;15662;49.128;8.520;2023-08-08T12:46:25;100361.72;;;27.49;32.28
28428;BME280;15662;49.128;8.520;2023-08-08T12:48:54;100360.16;;;27.46;32.49
28428;BME280;15662;49.128;8.520;2023-08-08T12:51:22;100360.44;;;27.43;32.49
28428;BME280;15662;49.128;8.520;2023-08-08T12:53:50;100358.59;;;27.44;32.37
28428;BME280;15662;49.128;8.520;2023-08-08T12:56:19;100354.16;;;27.33;32.36
28428;BME280;15662;49.128;8.520;2023-08-08T12:58:47;100363.16;;;27.43;32.44
28428;BME280;15662;49.128;8.520;2023-08-08T13:01:15;100365.59;;;27.46;32.51
28428;BME280;15662;49.128;8.520;2023-08-08T13:03:43;100361.84;;;27.47;32.58
28428;BME280;15662;49.128;8.520;2023-08-08T13:06:22;100355.56;;;27.47;32.01